createdAt,value
2019-06-07T00:01:33.738Z,5.67
2019-06-07T00:04:02.634Z,7.10
2019-06-07T00:06:31.491Z,6.77
2019-06-07T00:09:01.599Z,6.40
2019-06-07T00:11:30.463Z,6.37
2019-06-07T00:13:59.257Z,4.87
2019-06-07T00:16:28.059Z,7.33
2019-06-07T00:18:58.682Z,5.80
2019-06-07T00:22:12.689Z,7.10
2019-06-07T00:23:56.336Z,6.20
2019-06-07T00:26:25.729Z,7.03
2019-06-07T00:28:54.523Z,6.93
2019-06-07T00:31:24.737Z,7.57
2019-06-07T00:33:52.215Z,6.73
2019-06-07T00:36:23.229Z,6.50
2019-06-07T00:38:49.930Z,6.00
2019-06-07T00:41:20.762Z,7.73
2019-06-07T00:43:47.696Z,8.57
2019-06-07T00:46:18.758Z,9.13
2019-06-07T00:48:46.522Z,10.53
2019-06-07T00:51:17.656Z,11.10
2019-06-07T00:53:45.252Z,10.07
2019-06-07T00:56:14.107Z,10.00
2019-06-07T00:58:42.916Z,10.50
2019-06-07T01:01:13.726Z,8.83
2019-06-07T01:03:43.887Z,10.73
2019-06-07T01:06:12.770Z,11.13
2019-06-07T01:08:41.774Z,9.50
2019-06-07T01:11:10.651Z,11.37
2019-06-07T01:13:40.699Z,11.70
2019-06-07T01:16:10.489Z,9.40
2019-06-07T01:18:46.231Z,10.93
2019-06-07T01:21:08.396Z,12.30
2019-06-07T01:26:08.581Z,9.27
2019-06-07T01:28:37.412Z,12.03
2019-06-07T01:31:06.328Z,12.77
2019-06-07T01:33:50.350Z,10.30
2019-06-07T01:36:04.997Z,10.30
2019-06-07T01:38:33.812Z,10.60
2019-06-07T01:41:02.607Z,12.37
2019-06-07T01:43:31.424Z,13.10
2019-06-07T01:46:01.420Z,12.93
2019-06-07T01:48:48.590Z,13.40
2019-06-07T01:51:00.557Z,13.40
2019-06-07T01:53:31.580Z,14.17
2019-06-07T01:56:00.289Z,13.63
2019-06-07T01:58:29.442Z,13.77
2019-06-07T02:00:58.344Z,13.70
2019-06-07T02:03:32.161Z,14.33
2019-06-07T02:05:55.987Z,13.10
2019-06-07T02:08:27.247Z,14.90
2019-06-07T02:10:53.692Z,13.83
2019-06-07T02:13:23.763Z,12.40
2019-06-07T02:15:51.479Z,14.23
2019-06-07T02:18:21.768Z,13.60
2019-06-07T02:20:49.143Z,15.53
2019-06-07T02:23:17.939Z,16.90
2019-06-07T02:25:50.409Z,16.13
2019-06-07T02:28:44.253Z,12.90
2019-06-07T02:30:58.940Z,15.53
2019-06-07T02:33:15.050Z,13.43
2019-06-07T02:35:43.852Z,14.70
2019-06-07T02:38:12.730Z,12.47
2019-06-07T02:40:41.582Z,14.20
2019-06-07T02:43:13.827Z,15.90
2019-06-07T02:45:43.915Z,16.97
2019-06-07T02:48:12.144Z,14.60
2019-06-07T02:50:41.084Z,17.80
2019-06-07T02:53:09.998Z,16.10
2019-06-07T02:56:32.964Z,16.70
2019-06-07T02:58:07.725Z,15.50
2019-06-07T03:01:00.743Z,16.93
2019-06-07T03:03:12.020Z,16.90
2019-06-07T03:05:42.450Z,17.67
2019-06-07T03:08:11.702Z,17.00
2019-06-07T03:10:41.955Z,17.97
2019-06-07T03:13:09.919Z,18.23
2019-06-07T03:15:47.731Z,19.33
2019-06-07T03:18:15.140Z,17.17
2019-06-07T03:20:44.524Z,17.77
2019-06-07T03:23:13.675Z,16.90
2019-06-07T03:25:42.883Z,16.27
2019-06-07T03:28:12.503Z,15.50
2019-06-07T03:30:58.208Z,16.23
2019-06-07T03:33:10.106Z,17.03
2019-06-07T03:35:40.655Z,15.40
2019-06-07T03:38:07.915Z,13.87
2019-06-07T03:40:40.156Z,16.00
2019-06-07T03:43:08.511Z,16.33
2019-06-07T03:45:41.259Z,15.43
2019-06-07T03:48:07.764Z,16.40
2019-06-07T03:50:41.937Z,15.73
2019-06-07T03:53:05.724Z,15.03
2019-06-07T03:55:37.749Z,15.23
2019-06-07T03:58:31.367Z,12.83
2019-06-07T04:00:34.907Z,15.03
2019-06-07T04:03:01.203Z,16.37
2019-06-07T04:05:36.330Z,15.03
2019-06-07T04:07:58.941Z,15.00
2019-06-07T04:10:51.722Z,15.17
2019-06-07T04:12:58.247Z,14.87
2019-06-07T04:15:28.631Z,13.80
2019-06-07T04:18:01.888Z,15.47
2019-06-07T04:20:26.296Z,13.80
2019-06-07T04:22:55.353Z,15.03
2019-06-07T04:25:25.278Z,13.80
2019-06-07T04:27:54.195Z,12.60
2019-06-07T04:30:43.595Z,12.30
2019-06-07T04:33:12.436Z,10.77
2019-06-07T04:35:43.112Z,10.67
2019-06-07T04:38:13.409Z,10.60
2019-06-07T04:40:42.930Z,10.43
2019-06-07T04:43:11.187Z,9.53
2019-06-07T04:45:45.780Z,9.83
2019-06-07T04:48:10.413Z,10.10
2019-06-07T04:50:43.482Z,8.80
2019-06-07T04:53:08.897Z,9.60
2019-06-07T04:55:40.312Z,7.93
2019-06-07T04:58:07.171Z,10.00
2019-06-07T05:00:56.481Z,9.27
2019-06-07T05:03:05.659Z,9.20
2019-06-07T05:05:37.281Z,8.63
2019-06-07T05:08:07.880Z,8.93
2019-06-07T05:10:38.112Z,8.20
2019-06-07T05:13:03.902Z,7.67
2019-06-07T05:15:34.627Z,7.83
2019-06-07T05:18:03.151Z,9.77
2019-06-07T05:20:34.213Z,8.47
2019-06-07T05:23:02.851Z,8.00
2019-06-07T05:25:33.494Z,6.40
2019-06-07T05:28:02.741Z,6.67
2019-06-07T05:31:02.132Z,6.37
2019-06-07T05:33:02.731Z,6.43
2019-06-07T05:35:33.096Z,6.43
2019-06-07T05:38:00.677Z,6.07
2019-06-07T05:40:34.939Z,6.23
2019-06-07T05:43:02.743Z,6.30
2019-06-07T05:45:37.625Z,5.97
2019-06-07T05:48:02.946Z,5.73
2019-06-07T05:50:41.455Z,5.37
2019-06-07T05:53:01.844Z,5.83
2019-06-07T05:55:32.645Z,6.67
2019-06-07T05:58:00.797Z,5.60
2019-06-07T06:00:30.207Z,6.33
2019-06-07T06:03:06.059Z,5.83
2019-06-07T06:05:37.553Z,5.60
2019-06-07T06:08:01.739Z,5.60
2019-06-07T06:10:30.628Z,6.13
2019-06-07T06:12:59.438Z,6.83
2019-06-07T06:15:48.629Z,5.90
2019-06-07T06:18:03.739Z,5.37
2019-06-07T06:20:34.947Z,5.30
2019-06-07T06:23:01.467Z,6.97
2019-06-07T06:25:33.592Z,5.33
2019-06-07T06:28:10.913Z,5.50
2019-06-07T06:30:31.311Z,6.70
2019-06-07T06:33:01.289Z,5.90
2019-06-07T06:35:30.131Z,5.30
2019-06-07T06:37:59.523Z,6.17
2019-06-07T06:40:29.635Z,5.97
2019-06-07T06:42:59.013Z,5.60
2019-06-07T06:45:27.870Z,5.43
2019-06-07T06:47:56.774Z,5.27
2019-06-07T06:50:25.709Z,5.10
2019-06-07T06:52:55.522Z,4.90
2019-06-07T06:55:24.467Z,4.20
2019-06-07T06:57:53.363Z,4.13
2019-06-07T07:00:43.501Z,4.57
2019-06-07T07:03:47.632Z,4.60
2019-06-07T07:05:30.580Z,5.07
2019-06-07T07:08:00.083Z,4.60
2019-06-07T07:10:38.911Z,5.23
2019-06-07T07:13:07.771Z,4.90
2019-06-07T07:15:37.925Z,5.40
2019-06-07T07:18:08.770Z,5.77
2019-06-07T07:20:37.220Z,6.07
2019-06-07T07:23:07.106Z,5.40
2019-06-07T07:25:35.982Z,4.40
2019-06-07T07:28:05.026Z,5.07
2019-06-07T07:30:43.569Z,4.73
2019-06-07T07:33:12.111Z,4.30
2019-06-07T07:36:03.192Z,4.50
2019-06-07T07:38:10.837Z,4.50
2019-06-07T07:43:08.698Z,4.30
2019-06-07T07:45:37.649Z,4.47
2019-06-07T07:48:15.688Z,4.80
2019-06-07T07:50:35.626Z,3.90
2019-06-07T07:53:04.996Z,4.20
2019-06-07T07:55:33.899Z,4.13
2019-06-07T07:58:02.783Z,3.90
2019-06-07T08:03:04.294Z,4.67
2019-06-07T08:05:42.365Z,4.40
2019-06-07T08:08:01.619Z,4.17
2019-06-07T08:10:28.480Z,4.33
2019-06-07T08:13:22.108Z,4.27
2019-06-07T08:15:27.960Z,4.47
2019-06-07T08:18:03.292Z,4.87
2019-06-07T08:20:25.671Z,4.47
2019-06-07T08:22:59.725Z,4.80
2019-06-07T08:25:24.769Z,4.70
2019-06-07T08:27:56.490Z,4.57
2019-06-07T08:32:57.582Z,3.87
2019-06-07T08:36:03.267Z,4.43
2019-06-07T08:40:19.362Z,3.77
2019-06-07T08:43:11.361Z,3.50
2019-06-07T08:45:17.236Z,3.37
2019-06-07T08:47:47.626Z,3.90
2019-06-07T08:50:16.746Z,3.17
2019-06-07T08:52:45.610Z,3.10
2019-06-07T08:55:14.515Z,3.67
2019-06-07T08:57:43.436Z,3.30
2019-06-07T09:00:42.863Z,3.30
2019-06-07T09:02:41.874Z,3.07
2019-06-07T09:05:12.399Z,3.57
2019-06-07T09:07:40.905Z,3.20
2019-06-07T09:10:14.570Z,3.90
2019-06-07T09:12:39.577Z,3.83
2019-06-07T09:15:20.164Z,3.40
2019-06-07T09:18:29.506Z,3.30
2019-06-07T09:20:21.763Z,3.70
2019-06-07T09:22:36.131Z,3.13
2019-06-07T09:25:20.112Z,3.10
2019-06-07T09:27:37.488Z,2.33
2019-06-07T09:30:12.639Z,2.87
2019-06-07T09:32:34.724Z,2.50
2019-06-07T09:35:12.409Z,2.50
2019-06-07T09:40:19.626Z,2.60
2019-06-07T09:42:33.044Z,2.30
2019-06-07T09:45:04.346Z,2.60
2019-06-07T09:47:32.783Z,2.80
2019-06-07T09:50:08.357Z,2.93
2019-06-07T09:52:28.989Z,2.97
2019-06-07T09:55:19.674Z,3.30
2019-06-07T09:57:26.867Z,2.77
2019-06-07T09:59:56.282Z,2.50
2019-06-07T10:02:24.614Z,2.50
2019-06-07T10:04:53.559Z,2.13
2019-06-07T10:07:31.219Z,2.37
2019-06-07T10:12:20.998Z,2.77
2019-06-07T10:14:49.911Z,2.60
2019-06-07T10:17:18.795Z,2.40
2019-06-07T10:19:47.651Z,2.70
2019-06-07T10:22:18.260Z,2.30
2019-06-07T10:24:47.091Z,3.13
2019-06-07T10:27:16.037Z,2.90
2019-06-07T10:29:45.595Z,2.60
2019-06-07T10:32:14.564Z,2.30
2019-06-07T10:34:43.452Z,2.60
2019-06-07T10:37:15.600Z,2.47
2019-06-07T10:39:48.604Z,2.03
2019-06-07T10:42:11.716Z,2.10
2019-06-07T10:44:40.348Z,2.47
2019-06-07T10:47:10.080Z,2.50
2019-06-07T10:49:39.588Z,3.30
2019-06-07T10:52:09.703Z,2.87
2019-06-07T10:54:37.419Z,3.73
2019-06-07T10:57:09.349Z,2.20
2019-06-07T10:59:35.201Z,2.77
2019-06-07T11:02:05.602Z,2.60
2019-06-07T11:04:34.084Z,2.50
2019-06-07T11:07:04.419Z,2.53
2019-06-07T11:09:31.937Z,2.53
2019-06-07T11:12:02.300Z,2.90
2019-06-07T11:14:31.806Z,2.47
2019-06-07T11:17:00.684Z,2.87
2019-06-07T11:19:30.340Z,2.97
2019-06-07T11:21:59.259Z,3.57
2019-06-07T11:24:28.164Z,4.20
2019-06-07T11:26:57.346Z,2.90
2019-06-07T11:29:26.336Z,2.60
2019-06-07T11:31:55.167Z,2.77
2019-06-07T11:34:24.020Z,2.93
2019-06-07T11:36:53.602Z,2.70
2019-06-07T11:39:22.504Z,2.60
2019-06-07T11:41:51.563Z,2.20
2019-06-07T11:44:20.438Z,2.60
2019-06-07T11:46:49.404Z,2.60
2019-06-07T11:49:20.413Z,2.53
2019-06-07T11:51:47.371Z,2.00
2019-06-07T11:54:16.356Z,2.40
2019-06-07T11:56:45.194Z,2.43
2019-06-07T11:59:15.227Z,2.03
2019-06-07T12:01:43.014Z,2.30
2019-06-07T12:04:11.915Z,2.03
2019-06-07T12:06:40.898Z,2.27
2019-06-07T12:09:10.724Z,2.30
2019-06-07T12:11:39.255Z,1.97
2019-06-07T12:14:08.743Z,1.40
2019-06-07T12:16:37.133Z,2.40
2019-06-07T12:19:06.034Z,2.00
2019-06-07T12:21:34.938Z,2.03
2019-06-07T12:24:03.854Z,2.40
2019-06-07T12:26:33.146Z,1.80
2019-06-07T12:29:02.045Z,2.30
2019-06-07T12:31:31.028Z,2.10
2019-06-07T12:34:00.887Z,2.07
2019-06-07T12:36:29.867Z,1.50
2019-06-07T12:38:58.938Z,1.87
2019-06-07T12:41:27.803Z,2.00
2019-06-07T12:43:59.263Z,2.13
2019-06-07T12:46:28.614Z,2.57
2019-06-07T12:48:55.075Z,2.00
2019-06-07T12:51:24.680Z,2.20
2019-06-07T12:53:54.545Z,2.30
2019-06-07T12:56:24.218Z,1.80
2019-06-07T12:58:52.347Z,1.90
2019-06-07T13:01:23.038Z,2.43
2019-06-07T13:03:50.837Z,2.20
2019-06-07T13:06:19.768Z,2.60
2019-06-07T13:08:49.370Z,2.10
2019-06-07T13:11:24.259Z,2.60
2019-06-07T13:13:48.228Z,1.90
2019-06-07T13:16:18.411Z,2.77
2019-06-07T13:18:46.979Z,1.50
2019-06-07T13:21:16.174Z,1.60
2019-06-07T13:23:44.717Z,2.03
2019-06-07T13:26:13.654Z,1.97
2019-06-07T13:28:42.619Z,1.80
2019-06-07T13:31:11.551Z,1.83
2019-06-07T13:33:41.018Z,1.93
2019-06-07T13:36:11.189Z,1.93
2019-06-07T13:38:40.691Z,1.67
2019-06-07T13:41:09.577Z,1.90
2019-06-07T13:43:38.514Z,2.17
2019-06-07T13:46:07.446Z,1.60
2019-06-07T13:48:36.296Z,1.77
2019-06-07T13:51:05.130Z,1.67
2019-06-07T13:53:35.449Z,1.83
2019-06-07T13:56:04.282Z,2.63
2019-06-07T13:58:33.236Z,2.00
2019-06-07T14:01:02.208Z,2.00
2019-06-07T14:03:33.971Z,1.93
2019-06-07T14:06:01.703Z,2.00
2019-06-07T14:08:30.811Z,1.60
2019-06-07T14:11:00.711Z,2.40
2019-06-07T14:13:30.417Z,2.80
2019-06-07T14:15:58.898Z,2.00
2019-06-07T14:18:28.711Z,1.60
2019-06-07T14:20:59.002Z,1.60
2019-06-07T14:23:43.742Z,1.80
2019-06-07T14:25:56.870Z,2.53
2019-06-07T14:28:30.051Z,2.20
2019-06-07T14:30:55.744Z,2.00
2019-06-07T14:33:26.887Z,2.43
2019-06-07T14:35:53.786Z,3.37
2019-06-07T14:38:23.148Z,1.90
2019-06-07T14:40:53.786Z,1.87
2019-06-07T14:43:23.173Z,2.27
2019-06-07T14:45:51.709Z,2.00
2019-06-07T14:48:20.690Z,1.90
2019-06-07T14:50:50.064Z,2.10
2019-06-07T14:53:19.056Z,2.00
2019-06-07T14:55:47.982Z,2.20
2019-06-07T14:58:17.056Z,1.80
2019-06-07T15:00:45.900Z,1.87
2019-06-07T15:03:14.935Z,1.50
2019-06-07T15:05:44.614Z,1.53
2019-06-07T15:08:13.581Z,2.13
2019-06-07T15:10:44.069Z,2.17
2019-06-07T15:13:14.028Z,2.13
2019-06-07T15:15:43.119Z,2.73
2019-06-07T15:18:12.089Z,2.67
2019-06-07T15:20:42.195Z,1.93
2019-06-07T15:23:11.360Z,2.13
2019-06-07T15:25:40.348Z,2.53
2019-06-07T15:28:09.374Z,2.83
2019-06-07T15:30:39.686Z,2.80
2019-06-07T15:33:08.651Z,2.17
2019-06-07T15:35:39.047Z,1.60
2019-06-07T15:38:08.552Z,3.63
2019-06-07T15:40:38.079Z,1.80
2019-06-07T15:43:06.727Z,2.47
2019-06-07T15:45:37.730Z,2.60
2019-06-07T15:48:05.477Z,2.07
2019-06-07T15:50:34.534Z,1.90
2019-06-07T15:53:04.054Z,1.90
2019-06-07T15:55:37.654Z,1.80
2019-06-07T15:58:02.129Z,1.50
2019-06-07T16:00:33.230Z,2.00
2019-06-07T16:03:01.689Z,1.47
2019-06-07T16:05:31.899Z,1.53
2019-06-07T16:08:00.737Z,1.67
2019-06-07T16:10:29.825Z,1.63
2019-06-07T16:13:00.806Z,1.90
2019-06-07T16:15:28.883Z,1.90
2019-06-07T16:17:58.988Z,2.27
2019-06-07T16:20:27.998Z,2.30
2019-06-07T16:22:56.932Z,2.20
2019-06-07T16:25:25.977Z,2.30
2019-06-07T16:27:54.927Z,2.40
2019-06-07T16:30:24.083Z,1.93
2019-06-07T16:32:53.152Z,1.87
2019-06-07T16:35:22.164Z,1.83
2019-06-07T16:37:52.428Z,1.50
2019-06-07T16:40:19.903Z,1.47
2019-06-07T16:42:49.931Z,1.70
2019-06-07T16:45:19.608Z,1.40
2019-06-07T16:47:49.779Z,1.20
2019-06-07T16:50:18.279Z,1.70
2019-06-07T16:52:48.738Z,1.23
2019-06-07T16:55:18.027Z,1.50
2019-06-07T16:57:49.191Z,1.20
2019-06-07T17:00:17.133Z,0.93
2019-06-07T17:02:47.441Z,0.93
2019-06-07T17:05:15.222Z,0.80
2019-06-07T17:07:44.835Z,0.90
2019-06-07T17:10:14.029Z,1.27
2019-06-07T17:12:43.035Z,1.00
2019-06-07T17:15:12.043Z,0.70
2019-06-07T17:17:42.866Z,1.20
2019-06-07T17:20:11.452Z,0.83
2019-06-07T17:22:41.979Z,1.20
2019-06-07T17:25:09.215Z,1.43
2019-06-07T17:27:39.598Z,0.90
2019-06-07T17:30:08.474Z,1.50
2019-06-07T17:32:48.600Z,2.10
2019-06-07T17:35:07.295Z,5.80
2019-06-07T17:37:36.419Z,2.00
2019-06-07T17:40:05.711Z,2.47
2019-06-07T17:42:34.896Z,1.80
2019-06-07T17:45:05.064Z,1.50
2019-06-07T17:47:35.423Z,1.10
2019-06-07T17:50:05.905Z,0.70
2019-06-07T17:52:34.949Z,0.70
2019-06-07T17:55:06.342Z,1.00
2019-06-07T17:57:35.315Z,1.33
2019-06-07T18:00:27.847Z,0.80
2019-06-07T18:02:35.147Z,0.90
2019-06-07T18:05:04.160Z,0.93
2019-06-07T18:07:33.081Z,0.80
2019-06-07T18:10:02.131Z,0.60
2019-06-07T18:12:30.985Z,1.17
2019-06-07T18:14:59.912Z,0.70
2019-06-07T18:17:34.658Z,0.60
2019-06-07T18:19:58.981Z,0.80
2019-06-07T18:22:27.816Z,1.10
2019-06-07T18:24:57.150Z,1.60
2019-06-07T18:27:28.013Z,15.33
2019-06-07T18:29:56.864Z,4.23
2019-06-07T18:32:26.744Z,7.93
2019-06-07T18:34:55.633Z,7.47
2019-06-07T18:37:24.638Z,19.60
2019-06-07T18:39:55.316Z,7.10
2019-06-07T18:42:24.788Z,4.63
2019-06-07T18:44:53.740Z,2.23
2019-06-07T18:47:25.972Z,8.50
2019-06-07T18:49:55.664Z,3.23
2019-06-07T18:52:29.646Z,4.50
2019-06-07T18:54:59.738Z,4.40
2019-06-07T18:57:29.990Z,1.80
2019-06-07T19:00:00.789Z,2.53
2019-06-07T19:02:30.429Z,0.90
2019-06-07T19:04:59.919Z,0.60
2019-06-07T19:07:28.936Z,0.60
2019-06-07T19:09:59.408Z,0.77
2019-06-07T19:12:27.123Z,1.47
2019-06-07T19:14:57.597Z,1.00
2019-06-07T19:17:27.501Z,0.83
2019-06-07T19:19:56.639Z,1.43
2019-06-07T19:22:26.011Z,0.90
2019-06-07T19:24:56.785Z,0.63
2019-06-07T19:27:23.915Z,1.63
2019-06-07T19:29:53.069Z,5.00
2019-06-07T19:32:23.266Z,1.37
2019-06-07T19:34:53.752Z,0.87
2019-06-07T19:37:25.923Z,0.70
2019-06-07T19:39:55.834Z,1.27
2019-06-07T19:42:25.056Z,1.07
2019-06-07T19:45:06.480Z,0.93
2019-06-07T19:47:23.909Z,0.90
2019-06-07T19:49:54.939Z,0.80
2019-06-07T19:52:22.924Z,0.90
2019-06-07T19:54:53.632Z,0.97
2019-06-07T19:57:22.208Z,0.80
2019-06-07T19:59:53.350Z,0.70
2019-06-07T20:02:21.867Z,0.97
2019-06-07T20:04:55.855Z,0.77
2019-06-07T20:07:22.051Z,0.80
2019-06-07T20:09:52.627Z,0.73
2019-06-07T20:12:22.268Z,1.00
2019-06-07T20:14:55.299Z,1.10
2019-06-07T20:17:21.406Z,0.97
2019-06-07T20:19:50.837Z,0.80
2019-06-07T20:22:19.776Z,1.00
2019-06-07T20:24:50.100Z,0.87
2019-06-07T20:27:19.284Z,0.83
2019-06-07T20:29:48.849Z,0.60
2019-06-07T20:32:20.071Z,0.93
2019-06-07T20:34:50.149Z,0.70
2019-06-07T20:37:19.076Z,0.80
2019-06-07T20:39:47.883Z,0.60
2019-06-07T20:42:17.443Z,1.13
2019-06-07T20:44:47.477Z,0.93
2019-06-07T20:47:16.612Z,0.93
2019-06-07T20:49:45.570Z,1.03
2019-06-07T20:52:15.930Z,0.60
2019-06-07T20:54:45.416Z,0.70
2019-06-07T20:57:14.994Z,0.70
2019-06-07T20:59:44.217Z,0.93
2019-06-07T21:02:15.132Z,0.87
2019-06-07T21:04:45.741Z,0.80
2019-06-07T21:07:15.457Z,0.90
2019-06-07T21:09:45.070Z,1.10
2019-06-07T21:12:14.611Z,0.93
2019-06-07T21:14:44.212Z,0.87
2019-06-07T21:17:13.039Z,0.97
2019-06-07T21:19:42.617Z,0.97
2019-06-07T21:22:11.456Z,1.10
2019-06-07T21:24:41.560Z,1.10
2019-06-07T21:27:12.402Z,0.77
2019-06-07T21:29:42.708Z,1.20
2019-06-07T21:32:11.956Z,0.80
2019-06-07T21:34:41.565Z,0.80
2019-06-07T21:37:12.045Z,1.13
2019-06-07T21:39:40.706Z,2.60
2019-06-07T21:42:10.750Z,1.00
2019-06-07T21:44:40.136Z,0.90
2019-06-07T21:47:09.031Z,1.00
2019-06-07T21:49:39.580Z,1.03
2019-06-07T21:52:10.782Z,0.90
2019-06-07T21:54:39.352Z,0.90
2019-06-07T21:57:09.607Z,1.10
2019-06-07T21:59:40.359Z,1.00
2019-06-07T22:02:09.541Z,1.00
2019-06-07T22:04:39.763Z,1.00
2019-06-07T22:07:09.528Z,1.93
2019-06-07T22:09:44.960Z,1.30
2019-06-07T22:12:14.262Z,0.80
2019-06-07T22:14:43.540Z,0.93
2019-06-07T22:17:13.103Z,1.20
2019-06-07T22:19:43.042Z,0.97
2019-06-07T22:22:14.886Z,1.17
2019-06-07T22:24:42.937Z,0.73
2019-06-07T22:27:13.482Z,1.13
2019-06-07T22:29:42.052Z,1.20
2019-06-07T22:32:12.856Z,1.00
2019-06-07T22:34:41.191Z,0.87
2019-06-07T22:37:11.199Z,0.90
2019-06-07T22:39:39.563Z,0.83
2019-06-07T22:42:09.098Z,1.03
2019-06-07T22:44:40.017Z,1.20
2019-06-07T22:47:08.054Z,0.97
2019-06-07T22:49:37.972Z,0.90
2019-06-07T22:52:12.003Z,1.03
2019-06-07T22:54:37.575Z,1.23
2019-06-07T22:57:11.898Z,5.27
2019-06-07T22:59:39.627Z,7.33
2019-06-07T23:02:10.355Z,3.43
2019-06-07T23:04:39.093Z,1.90
2019-06-07T23:07:08.855Z,1.33
2019-06-07T23:09:36.924Z,1.53
2019-06-07T23:12:07.346Z,1.00
2019-06-07T23:14:36.179Z,0.90
2019-06-07T23:17:07.212Z,0.53
2019-06-07T23:19:37.598Z,0.97
2019-06-07T23:22:06.489Z,0.93
2019-06-07T23:24:35.391Z,0.93
2019-06-07T23:27:04.488Z,1.07
2019-06-07T23:29:33.399Z,0.63
2019-06-07T23:32:02.384Z,0.83
2019-06-07T23:34:31.816Z,0.90
2019-06-07T23:37:00.748Z,1.03
2019-06-07T23:39:29.775Z,0.70
2019-06-07T23:41:58.653Z,1.00
2019-06-07T23:44:28.163Z,0.90
2019-06-07T23:47:10.353Z,0.90
2019-06-07T23:49:26.509Z,1.20
2019-06-07T23:51:55.344Z,1.07
2019-06-07T23:54:24.391Z,0.70
2019-06-07T23:56:53.331Z,1.00
2019-06-07T23:59:22.497Z,0.90
